sensor_id;sensor_type;location;lat;lon;timestamp;P1;durP1;ratioP1;P2;durP2;ratioP2
67130;SDS011;54051;53.464;49.532;2022-12-11T00:01:16;6.32;;;1.60;;
67130;SDS011;54051;53.464;49.532;2022-12-11T00:03:45;7.35;;;1.90;;
67130;SDS011;54051;53.464;49.532;2022-12-11T00:06:13;6.88;;;1.95;;
67130;SDS011;54051;53.464;49.532;2022-12-11T00:08:41;8.43;;;1.70;;
67130;SDS011;54051;53.464;49.532;2022-12-11T00:11:07;3.78;;;1.58;;
67130;SDS011;54051;53.464;49.532;2022-12-11T00:13:34;6.10;;;2.00;;
67130;SDS011;54051;53.464;49.532;2022-12-11T00:16:00;7.90;;;2.20;;
67130;SDS011;54051;53.464;49.532;2022-12-11T00:18:26;9.43;;;3.13;;
67130;SDS011;54051;53.464;49.532;2022-12-11T00:20:52;8.88;;;2.28;;
67130;SDS011;54051;53.464;49.532;2022-12-11T00:23:18;8.90;;;1.80;;
67130;SDS011;54051;53.464;49.532;2022-12-11T00:25:45;6.00;;;1.85;;
67130;SDS011;54051;53.464;49.532;2022-12-11T00:28:13;6.30;;;1.73;;
67130;SDS011;54051;53.464;49.532;2022-12-11T00:30:42;8.73;;;2.05;;
67130;SDS011;54051;53.464;49.532;2022-12-11T00:33:09;6.72;;;2.47;;
67130;SDS011;54051;53.464;49.532;2022-12-11T00:35:39;5.43;;;1.77;;
67130;SDS011;54051;53.464;49.532;2022-12-11T00:38:06;9.23;;;2.17;;
67130;SDS011;54051;53.464;49.532;2022-12-11T00:40:33;8.45;;;2.25;;
67130;SDS011;54051;53.464;49.532;2022-12-11T00:43:00;9.45;;;2.55;;
67130;SDS011;54051;53.464;49.532;2022-12-11T00:45:27;10.80;;;2.83;;
67130;SDS011;54051;53.464;49.532;2022-12-11T00:47:52;9.57;;;3.30;;
67130;SDS011;54051;53.464;49.532;2022-12-11T00:50:18;10.13;;;2.70;;
67130;SDS011;54051;53.464;49.532;2022-12-11T00:52:44;6.97;;;2.42;;
67130;SDS011;54051;53.464;49.532;2022-12-11T00:55:11;7.65;;;2.15;;
67130;SDS011;54051;53.464;49.532;2022-12-11T00:57:38;7.50;;;2.40;;
67130;SDS011;54051;53.464;49.532;2022-12-11T01:00:04;10.05;;;2.72;;
67130;SDS011;54051;53.464;49.532;2022-12-11T01:02:32;5.07;;;1.88;;
67130;SDS011;54051;53.464;49.532;2022-12-11T01:04:58;6.45;;;2.55;;
67130;SDS011;54051;53.464;49.532;2022-12-11T01:07:24;9.65;;;2.35;;
67130;SDS011;54051;53.464;49.532;2022-12-11T01:09:51;8.52;;;2.30;;
67130;SDS011;54051;53.464;49.532;2022-12-11T01:12:35;5.13;;;2.17;;
67130;SDS011;54051;53.464;49.532;2022-12-11T01:15:01;9.60;;;2.85;;
67130;SDS011;54051;53.464;49.532;2022-12-11T01:17:27;7.72;;;2.58;;
67130;SDS011;54051;53.464;49.532;2022-12-11T01:19:53;12.82;;;2.45;;
67130;SDS011;54051;53.464;49.532;2022-12-11T01:22:19;5.75;;;1.85;;
67130;SDS011;54051;53.464;49.532;2022-12-11T01:24:45;6.35;;;2.33;;
67130;SDS011;54051;53.464;49.532;2022-12-11T01:27:11;8.63;;;2.55;;
67130;SDS011;54051;53.464;49.532;2022-12-11T01:29:37;8.70;;;2.17;;
67130;SDS011;54051;53.464;49.532;2022-12-11T01:32:03;7.55;;;2.17;;
67130;SDS011;54051;53.464;49.532;2022-12-11T01:34:30;5.72;;;2.00;;
67130;SDS011;54051;53.464;49.532;2022-12-11T01:36:56;8.88;;;2.40;;
67130;SDS011;54051;53.464;49.532;2022-12-11T01:39:22;6.97;;;2.15;;
67130;SDS011;54051;53.464;49.532;2022-12-11T01:41:48;8.20;;;2.25;;
67130;SDS011;54051;53.464;49.532;2022-12-11T01:46:40;6.47;;;2.03;;
67130;SDS011;54051;53.464;49.532;2022-12-11T01:49:11;5.60;;;2.15;;
67130;SDS011;54051;53.464;49.532;2022-12-11T01:51:39;11.73;;;2.65;;
67130;SDS011;54051;53.464;49.532;2022-12-11T01:54:12;8.77;;;2.17;;
67130;SDS011;54051;53.464;49.532;2022-12-11T01:56:41;5.75;;;2.10;;
67130;SDS011;54051;53.464;49.532;2022-12-11T01:59:11;6.85;;;1.88;;
67130;SDS011;54051;53.464;49.532;2022-12-11T02:01:44;7.10;;;2.50;;
67130;SDS011;54051;53.464;49.532;2022-12-11T02:04:14;6.82;;;2.15;;
67130;SDS011;54051;53.464;49.532;2022-12-11T02:06:43;6.03;;;1.92;;
67130;SDS011;54051;53.464;49.532;2022-12-11T02:09:18;7.18;;;2.28;;
67130;SDS011;54051;53.464;49.532;2022-12-11T02:11:51;7.22;;;2.40;;
67130;SDS011;54051;53.464;49.532;2022-12-11T02:17:19;5.97;;;2.53;;
67130;SDS011;54051;53.464;49.532;2022-12-11T02:30:46;5.15;;;2.30;;
67130;SDS011;54051;53.464;49.532;2022-12-11T02:33:16;5.85;;;2.35;;
67130;SDS011;54051;53.464;49.532;2022-12-11T02:35:47;10.65;;;2.58;;
67130;SDS011;54051;53.464;49.532;2022-12-11T02:38:20;7.35;;;2.22;;
67130;SDS011;54051;53.464;49.532;2022-12-11T02:40:51;7.97;;;2.38;;
67130;SDS011;54051;53.464;49.532;2022-12-11T02:43:19;7.38;;;2.83;;
67130;SDS011;54051;53.464;49.532;2022-12-11T02:45:46;7.00;;;2.53;;
67130;SDS011;54051;53.464;49.532;2022-12-11T02:48:14;8.02;;;3.05;;
67130;SDS011;54051;53.464;49.532;2022-12-11T02:50:43;6.75;;;2.30;;
67130;SDS011;54051;53.464;49.532;2022-12-11T02:53:15;7.38;;;2.58;;
67130;SDS011;54051;53.464;49.532;2022-12-11T02:55:43;7.38;;;2.13;;
67130;SDS011;54051;53.464;49.532;2022-12-11T02:58:15;7.45;;;2.42;;
67130;SDS011;54051;53.464;49.532;2022-12-11T03:00:44;7.18;;;2.45;;
67130;SDS011;54051;53.464;49.532;2022-12-11T03:03:11;6.70;;;2.40;;
67130;SDS011;54051;53.464;49.532;2022-12-11T03:05:37;8.98;;;3.45;;
67130;SDS011;54051;53.464;49.532;2022-12-11T03:08:05;4.88;;;1.83;;
67130;SDS011;54051;53.464;49.532;2022-12-11T03:10:31;8.50;;;2.33;;
67130;SDS011;54051;53.464;49.532;2022-12-11T03:12:57;10.57;;;3.00;;
67130;SDS011;54051;53.464;49.532;2022-12-11T03:15:31;7.88;;;2.40;;
67130;SDS011;54051;53.464;49.532;2022-12-11T03:18:18;7.72;;;2.65;;
67130;SDS011;54051;53.464;49.532;2022-12-11T03:23:27;10.80;;;2.75;;
67130;SDS011;54051;53.464;49.532;2022-12-11T03:26:00;8.40;;;2.78;;
67130;SDS011;54051;53.464;49.532;2022-12-11T03:28:50;14.80;;;3.58;;
67130;SDS011;54051;53.464;49.532;2022-12-11T03:34:08;7.07;;;3.08;;
67130;SDS011;54051;53.464;49.532;2022-12-11T03:36:40;7.63;;;2.45;;
67130;SDS011;54051;53.464;49.532;2022-12-11T03:39:09;7.15;;;1.98;;
67130;SDS011;54051;53.464;49.532;2022-12-11T03:41:39;10.15;;;2.70;;
67130;SDS011;54051;53.464;49.532;2022-12-11T03:44:08;6.18;;;2.17;;
67130;SDS011;54051;53.464;49.532;2022-12-11T03:46:37;6.85;;;2.40;;
67130;SDS011;54051;53.464;49.532;2022-12-11T03:49:18;6.72;;;2.00;;
67130;SDS011;54051;53.464;49.532;2022-12-11T03:51:48;7.53;;;2.60;;
67130;SDS011;54051;53.464;49.532;2022-12-11T03:54:16;5.65;;;1.95;;
67130;SDS011;54051;53.464;49.532;2022-12-11T03:56:43;5.70;;;1.90;;
67130;SDS011;54051;53.464;49.532;2022-12-11T03:59:11;6.50;;;1.85;;
67130;SDS011;54051;53.464;49.532;2022-12-11T04:01:37;7.38;;;2.17;;
67130;SDS011;54051;53.464;49.532;2022-12-11T04:04:04;11.48;;;2.80;;
67130;SDS011;54051;53.464;49.532;2022-12-11T04:06:30;6.78;;;2.17;;
67130;SDS011;54051;53.464;49.532;2022-12-11T04:08:56;8.20;;;2.20;;
67130;SDS011;54051;53.464;49.532;2022-12-11T04:11:22;6.78;;;2.28;;
67130;SDS011;54051;53.464;49.532;2022-12-11T04:14:01;7.18;;;2.28;;
67130;SDS011;54051;53.464;49.532;2022-12-11T04:16:50;12.32;;;3.00;;
67130;SDS011;54051;53.464;49.532;2022-12-11T04:19:17;7.18;;;2.33;;
67130;SDS011;54051;53.464;49.532;2022-12-11T04:22:02;9.70;;;2.75;;
67130;SDS011;54051;53.464;49.532;2022-12-11T04:24:58;10.07;;;2.75;;
67130;SDS011;54051;53.464;49.532;2022-12-11T04:27:24;11.00;;;2.80;;
67130;SDS011;54051;53.464;49.532;2022-12-11T04:30:10;10.07;;;2.90;;
67130;SDS011;54051;53.464;49.532;2022-12-11T04:32:39;9.82;;;3.10;;
67130;SDS011;54051;53.464;49.532;2022-12-11T04:35:06;9.82;;;2.85;;
67130;SDS011;54051;53.464;49.532;2022-12-11T04:37:34;8.50;;;2.47;;
67130;SDS011;54051;53.464;49.532;2022-12-11T04:40:01;10.33;;;2.70;;
67130;SDS011;54051;53.464;49.532;2022-12-11T04:42:29;8.98;;;2.80;;
67130;SDS011;54051;53.464;49.532;2022-12-11T04:44:55;6.85;;;1.70;;
67130;SDS011;54051;53.464;49.532;2022-12-11T04:47:21;9.00;;;2.75;;
67130;SDS011;54051;53.464;49.532;2022-12-11T04:49:47;12.55;;;3.17;;
67130;SDS011;54051;53.464;49.532;2022-12-11T04:52:13;13.65;;;3.20;;
67130;SDS011;54051;53.464;49.532;2022-12-11T04:54:39;6.28;;;1.95;;
67130;SDS011;54051;53.464;49.532;2022-12-11T04:57:05;5.32;;;2.22;;
67130;SDS011;54051;53.464;49.532;2022-12-11T04:59:31;7.07;;;2.30;;
67130;SDS011;54051;53.464;49.532;2022-12-11T05:01:58;8.13;;;2.93;;
67130;SDS011;54051;53.464;49.532;2022-12-11T05:04:24;5.38;;;1.85;;
67130;SDS011;54051;53.464;49.532;2022-12-11T05:06:50;8.43;;;2.75;;
67130;SDS011;54051;53.464;49.532;2022-12-11T05:09:16;7.78;;;2.17;;
67130;SDS011;54051;53.464;49.532;2022-12-11T05:11:42;12.98;;;2.55;;
67130;SDS011;54051;53.464;49.532;2022-12-11T05:14:09;7.72;;;2.40;;
67130;SDS011;54051;53.464;49.532;2022-12-11T05:16:35;11.68;;;2.15;;
67130;SDS011;54051;53.464;49.532;2022-12-11T05:19:01;5.50;;;1.90;;
67130;SDS011;54051;53.464;49.532;2022-12-11T05:21:27;8.50;;;2.40;;
67130;SDS011;54051;53.464;49.532;2022-12-11T05:23:53;9.20;;;2.78;;
67130;SDS011;54051;53.464;49.532;2022-12-11T05:26:19;8.50;;;3.10;;
67130;SDS011;54051;53.464;49.532;2022-12-11T05:28:45;6.53;;;2.50;;
67130;SDS011;54051;53.464;49.532;2022-12-11T05:31:17;6.93;;;1.80;;
67130;SDS011;54051;53.464;49.532;2022-12-11T05:33:44;10.32;;;3.00;;
67130;SDS011;54051;53.464;49.532;2022-12-11T05:36:14;9.68;;;2.40;;
67130;SDS011;54051;53.464;49.532;2022-12-11T05:38:42;6.40;;;1.75;;
67130;SDS011;54051;53.464;49.532;2022-12-11T05:41:09;12.38;;;2.28;;
67130;SDS011;54051;53.464;49.532;2022-12-11T05:43:37;8.02;;;2.58;;
67130;SDS011;54051;53.464;49.532;2022-12-11T05:46:07;9.38;;;2.83;;
67130;SDS011;54051;53.464;49.532;2022-12-11T05:48:39;7.80;;;2.60;;
67130;SDS011;54051;53.464;49.532;2022-12-11T05:51:05;7.00;;;2.17;;
67130;SDS011;54051;53.464;49.532;2022-12-11T05:53:33;7.88;;;2.25;;
67130;SDS011;54051;53.464;49.532;2022-12-11T05:56:04;6.65;;;2.30;;
67130;SDS011;54051;53.464;49.532;2022-12-11T05:58:38;8.73;;;2.58;;
67130;SDS011;54051;53.464;49.532;2022-12-11T06:01:15;7.40;;;2.70;;
67130;SDS011;54051;53.464;49.532;2022-12-11T06:03:44;8.07;;;2.50;;
67130;SDS011;54051;53.464;49.532;2022-12-11T06:06:10;10.02;;;2.72;;
67130;SDS011;54051;53.464;49.532;2022-12-11T06:08:36;8.00;;;2.10;;
67130;SDS011;54051;53.464;49.532;2022-12-11T06:11:03;8.30;;;2.78;;
67130;SDS011;54051;53.464;49.532;2022-12-11T06:13:29;10.60;;;3.03;;
67130;SDS011;54051;53.464;49.532;2022-12-11T06:15:58;7.60;;;2.67;;
67130;SDS011;54051;53.464;49.532;2022-12-11T06:18:26;5.68;;;2.03;;
67130;SDS011;54051;53.464;49.532;2022-12-11T06:20:52;6.82;;;2.72;;
67130;SDS011;54051;53.464;49.532;2022-12-11T06:23:19;7.75;;;2.50;;
67130;SDS011;54051;53.464;49.532;2022-12-11T06:25:45;7.60;;;2.90;;
67130;SDS011;54051;53.464;49.532;2022-12-11T06:28:11;8.38;;;2.97;;
67130;SDS011;54051;53.464;49.532;2022-12-11T06:30:37;7.43;;;2.85;;
67130;SDS011;54051;53.464;49.532;2022-12-11T06:33:03;9.20;;;3.28;;
67130;SDS011;54051;53.464;49.532;2022-12-11T06:35:29;9.68;;;2.75;;
67130;SDS011;54051;53.464;49.532;2022-12-11T06:37:55;6.88;;;2.30;;
67130;SDS011;54051;53.464;49.532;2022-12-11T06:40:21;5.78;;;2.35;;
67130;SDS011;54051;53.464;49.532;2022-12-11T06:42:47;6.60;;;2.40;;
67130;SDS011;54051;53.464;49.532;2022-12-11T06:45:13;6.88;;;2.50;;
67130;SDS011;54051;53.464;49.532;2022-12-11T06:47:39;11.80;;;3.17;;
67130;SDS011;54051;53.464;49.532;2022-12-11T06:50:05;8.43;;;3.10;;
67130;SDS011;54051;53.464;49.532;2022-12-11T06:52:31;8.00;;;2.75;;
67130;SDS011;54051;53.464;49.532;2022-12-11T06:54:57;9.68;;;2.83;;
67130;SDS011;54051;53.464;49.532;2022-12-11T06:57:23;10.93;;;2.97;;
67130;SDS011;54051;53.464;49.532;2022-12-11T06:59:49;7.97;;;3.20;;
67130;SDS011;54051;53.464;49.532;2022-12-11T07:02:16;9.27;;;3.10;;
67130;SDS011;54051;53.464;49.532;2022-12-11T07:04:43;10.90;;;3.38;;
67130;SDS011;54051;53.464;49.532;2022-12-11T07:07:10;11.13;;;3.13;;
67130;SDS011;54051;53.464;49.532;2022-12-11T07:09:37;12.45;;;3.40;;
67130;SDS011;54051;53.464;49.532;2022-12-11T07:12:04;10.23;;;2.63;;
67130;SDS011;54051;53.464;49.532;2022-12-11T07:14:31;7.10;;;3.05;;
67130;SDS011;54051;53.464;49.532;2022-12-11T07:16:58;10.30;;;2.88;;
67130;SDS011;54051;53.464;49.532;2022-12-11T07:19:24;9.60;;;3.15;;
67130;SDS011;54051;53.464;49.532;2022-12-11T07:21:51;9.10;;;3.30;;
67130;SDS011;54051;53.464;49.532;2022-12-11T07:24:17;8.27;;;2.83;;
67130;SDS011;54051;53.464;49.532;2022-12-11T07:26:43;7.20;;;2.55;;
67130;SDS011;54051;53.464;49.532;2022-12-11T07:29:09;9.48;;;3.03;;
67130;SDS011;54051;53.464;49.532;2022-12-11T07:31:35;9.20;;;2.55;;
67130;SDS011;54051;53.464;49.532;2022-12-11T07:34:03;11.13;;;2.95;;
67130;SDS011;54051;53.464;49.532;2022-12-11T07:36:31;10.75;;;3.00;;
67130;SDS011;54051;53.464;49.532;2022-12-11T07:38:58;9.55;;;3.03;;
67130;SDS011;54051;53.464;49.532;2022-12-11T07:41:25;7.68;;;2.17;;
67130;SDS011;54051;53.464;49.532;2022-12-11T07:43:56;8.75;;;3.17;;
67130;SDS011;54051;53.464;49.532;2022-12-11T07:46:25;9.73;;;3.08;;
67130;SDS011;54051;53.464;49.532;2022-12-11T07:48:52;9.82;;;3.10;;
67130;SDS011;54051;53.464;49.532;2022-12-11T07:51:20;8.30;;;3.00;;
67130;SDS011;54051;53.464;49.532;2022-12-11T07:53:50;11.70;;;3.63;;
67130;SDS011;54051;53.464;49.532;2022-12-11T07:56:18;6.95;;;2.45;;
67130;SDS011;54051;53.464;49.532;2022-12-11T07:58:44;7.85;;;2.25;;
67130;SDS011;54051;53.464;49.532;2022-12-11T08:01:12;10.05;;;3.20;;
67130;SDS011;54051;53.464;49.532;2022-12-11T08:03:40;11.52;;;3.42;;
67130;SDS011;54051;53.464;49.532;2022-12-11T08:06:06;10.32;;;3.47;;
67130;SDS011;54051;53.464;49.532;2022-12-11T08:08:33;11.82;;;3.10;;
67130;SDS011;54051;53.464;49.532;2022-12-11T08:11:00;8.32;;;3.15;;
67130;SDS011;54051;53.464;49.532;2022-12-11T08:13:26;12.50;;;3.83;;
67130;SDS011;54051;53.464;49.532;2022-12-11T08:15:52;11.63;;;3.40;;
67130;SDS011;54051;53.464;49.532;2022-12-11T08:18:18;9.57;;;3.33;;
67130;SDS011;54051;53.464;49.532;2022-12-11T08:20:44;12.25;;;3.20;;
67130;SDS011;54051;53.464;49.532;2022-12-11T08:23:10;10.27;;;3.25;;
67130;SDS011;54051;53.464;49.532;2022-12-11T08:25:36;14.50;;;3.03;;
67130;SDS011;54051;53.464;49.532;2022-12-11T08:28:02;11.32;;;3.20;;
67130;SDS011;54051;53.464;49.532;2022-12-11T08:30:28;10.07;;;2.90;;
67130;SDS011;54051;53.464;49.532;2022-12-11T08:32:55;9.00;;;3.00;;
67130;SDS011;54051;53.464;49.532;2022-12-11T08:35:21;8.68;;;2.53;;
67130;SDS011;54051;53.464;49.532;2022-12-11T08:37:47;10.40;;;3.10;;
67130;SDS011;54051;53.464;49.532;2022-12-11T08:40:13;9.05;;;3.03;;
67130;SDS011;54051;53.464;49.532;2022-12-11T08:42:39;13.20;;;3.47;;
67130;SDS011;54051;53.464;49.532;2022-12-11T08:45:05;9.48;;;3.20;;
67130;SDS011;54051;53.464;49.532;2022-12-11T08:47:32;9.10;;;3.22;;
67130;SDS011;54051;53.464;49.532;2022-12-11T08:49:58;12.20;;;3.30;;
67130;SDS011;54051;53.464;49.532;2022-12-11T08:52:24;8.35;;;3.08;;
67130;SDS011;54051;53.464;49.532;2022-12-11T08:54:50;10.45;;;3.00;;
67130;SDS011;54051;53.464;49.532;2022-12-11T08:57:16;8.43;;;2.33;;
67130;SDS011;54051;53.464;49.532;2022-12-11T08:59:41;8.80;;;3.00;;
67130;SDS011;54051;53.464;49.532;2022-12-11T09:02:10;9.98;;;2.80;;
67130;SDS011;54051;53.464;49.532;2022-12-11T09:04:37;8.10;;;2.85;;
67130;SDS011;54051;53.464;49.532;2022-12-11T09:07:03;5.85;;;2.03;;
67130;SDS011;54051;53.464;49.532;2022-12-11T09:09:29;8.18;;;3.00;;
67130;SDS011;54051;53.464;49.532;2022-12-11T09:11:55;10.85;;;3.05;;
67130;SDS011;54051;53.464;49.532;2022-12-11T09:14:21;8.25;;;2.90;;
67130;SDS011;54051;53.464;49.532;2022-12-11T09:16:47;7.57;;;3.13;;
67130;SDS011;54051;53.464;49.532;2022-12-11T09:19:14;6.93;;;2.80;;
67130;SDS011;54051;53.464;49.532;2022-12-11T09:21:41;9.20;;;2.92;;
67130;SDS011;54051;53.464;49.532;2022-12-11T09:24:08;11.68;;;3.42;;
67130;SDS011;54051;53.464;49.532;2022-12-11T09:26:35;7.57;;;2.55;;
67130;SDS011;54051;53.464;49.532;2022-12-11T09:29:02;8.18;;;2.80;;
67130;SDS011;54051;53.464;49.532;2022-12-11T09:33:56;10.02;;;3.38;;
67130;SDS011;54051;53.464;49.532;2022-12-11T09:36:25;10.38;;;2.95;;
67130;SDS011;54051;53.464;49.532;2022-12-11T09:38:51;8.20;;;3.10;;
67130;SDS011;54051;53.464;49.532;2022-12-11T09:46:15;11.77;;;3.30;;
67130;SDS011;54051;53.464;49.532;2022-12-11T09:48:43;7.90;;;2.45;;
67130;SDS011;54051;53.464;49.532;2022-12-11T09:53:48;8.27;;;3.10;;
67130;SDS011;54051;53.464;49.532;2022-12-11T09:56:24;8.65;;;3.03;;
67130;SDS011;54051;53.464;49.532;2022-12-11T09:59:01;13.05;;;3.60;;
67130;SDS011;54051;53.464;49.532;2022-12-11T10:07:15;11.75;;;3.10;;
67130;SDS011;54051;53.464;49.532;2022-12-11T10:10:08;10.27;;;3.05;;
67130;SDS011;54051;53.464;49.532;2022-12-11T10:15:25;9.55;;;2.78;;
67130;SDS011;54051;53.464;49.532;2022-12-11T10:18:08;7.47;;;2.85;;
67130;SDS011;54051;53.464;49.532;2022-12-11T10:20:38;5.20;;;1.67;;
67130;SDS011;54051;53.464;49.532;2022-12-11T10:23:07;7.43;;;2.53;;
67130;SDS011;54051;53.464;49.532;2022-12-11T10:25:40;9.43;;;3.03;;
67130;SDS011;54051;53.464;49.532;2022-12-11T10:28:11;7.25;;;2.45;;
67130;SDS011;54051;53.464;49.532;2022-12-11T10:31:06;10.70;;;3.15;;
67130;SDS011;54051;53.464;49.532;2022-12-11T10:33:40;8.75;;;2.78;;
67130;SDS011;54051;53.464;49.532;2022-12-11T10:36:17;9.98;;;3.00;;
67130;SDS011;54051;53.464;49.532;2022-12-11T10:38:47;7.38;;;2.45;;
67130;SDS011;54051;53.464;49.532;2022-12-11T10:41:18;7.60;;;2.20;;
67130;SDS011;54051;53.464;49.532;2022-12-11T10:43:47;6.82;;;2.25;;
67130;SDS011;54051;53.464;49.532;2022-12-11T10:46:22;10.02;;;3.03;;
67130;SDS011;54051;53.464;49.532;2022-12-11T10:48:53;9.23;;;3.03;;
67130;SDS011;54051;53.464;49.532;2022-12-11T10:51:21;10.88;;;3.50;;
67130;SDS011;54051;53.464;49.532;2022-12-11T10:53:50;9.02;;;2.85;;
67130;SDS011;54051;53.464;49.532;2022-12-11T10:56:29;4.68;;;1.95;;
67130;SDS011;54051;53.464;49.532;2022-12-11T10:58:57;7.40;;;2.47;;
67130;SDS011;54051;53.464;49.532;2022-12-11T11:01:26;10.02;;;3.33;;
67130;SDS011;54051;53.464;49.532;2022-12-11T11:04:04;9.10;;;2.38;;
67130;SDS011;54051;53.464;49.532;2022-12-11T11:06:38;7.03;;;2.40;;
67130;SDS011;54051;53.464;49.532;2022-12-11T11:09:21;6.03;;;2.28;;
67130;SDS011;54051;53.464;49.532;2022-12-11T11:11:54;7.82;;;2.33;;
67130;SDS011;54051;53.464;49.532;2022-12-11T11:14:20;7.40;;;2.47;;
67130;SDS011;54051;53.464;49.532;2022-12-11T11:16:48;8.20;;;2.28;;
67130;SDS011;54051;53.464;49.532;2022-12-11T11:19:20;6.55;;;2.28;;
67130;SDS011;54051;53.464;49.532;2022-12-11T11:21:50;7.75;;;2.63;;
67130;SDS011;54051;53.464;49.532;2022-12-11T11:24:39;7.57;;;2.67;;
67130;SDS011;54051;53.464;49.532;2022-12-11T11:29:38;8.38;;;2.28;;
67130;SDS011;54051;53.464;49.532;2022-12-11T11:34:40;10.38;;;3.08;;
67130;SDS011;54051;53.464;49.532;2022-12-11T11:37:14;7.50;;;2.55;;
67130;SDS011;54051;53.464;49.532;2022-12-11T11:39:49;8.55;;;2.97;;
67130;SDS011;54051;53.464;49.532;2022-12-11T11:45:30;10.35;;;3.38;;
67130;SDS011;54051;53.464;49.532;2022-12-11T11:48:18;9.35;;;2.90;;
67130;SDS011;54051;53.464;49.532;2022-12-11T11:50:48;10.88;;;2.78;;
67130;SDS011;54051;53.464;49.532;2022-12-11T11:53:21;8.82;;;2.75;;
67130;SDS011;54051;53.464;49.532;2022-12-11T11:55:57;12.45;;;3.55;;
67130;SDS011;54051;53.464;49.532;2022-12-11T11:58:26;10.45;;;3.55;;
67130;SDS011;54051;53.464;49.532;2022-12-11T12:01:02;9.55;;;3.72;;
67130;SDS011;54051;53.464;49.532;2022-12-11T12:03:28;10.15;;;3.40;;
67130;SDS011;54051;53.464;49.532;2022-12-11T12:11:14;10.13;;;3.15;;
67130;SDS011;54051;53.464;49.532;2022-12-11T12:19:46;8.98;;;3.22;;
67130;SDS011;54051;53.464;49.532;2022-12-11T12:25:33;9.13;;;3.38;;
67130;SDS011;54051;53.464;49.532;2022-12-11T12:47:41;7.82;;;2.70;;
67130;SDS011;54051;53.464;49.532;2022-12-11T12:50:19;8.80;;;2.60;;
67130;SDS011;54051;53.464;49.532;2022-12-11T12:52:47;7.20;;;2.10;;
67130;SDS011;54051;53.464;49.532;2022-12-11T12:55:22;7.18;;;2.67;;
67130;SDS011;54051;53.464;49.532;2022-12-11T12:57:51;8.80;;;2.80;;
67130;SDS011;54051;53.464;49.532;2022-12-11T13:03:18;5.80;;;2.13;;
67130;SDS011;54051;53.464;49.532;2022-12-11T13:06:01;6.15;;;2.05;;
67130;SDS011;54051;53.464;49.532;2022-12-11T13:08:40;6.63;;;2.40;;
67130;SDS011;54051;53.464;49.532;2022-12-11T13:11:11;7.53;;;1.92;;
67130;SDS011;54051;53.464;49.532;2022-12-11T13:13:41;6.07;;;2.28;;
67130;SDS011;54051;53.464;49.532;2022-12-11T13:18:42;6.38;;;2.45;;
67130;SDS011;54051;53.464;49.532;2022-12-11T13:26:45;7.13;;;2.55;;
67130;SDS011;54051;53.464;49.532;2022-12-11T13:31:58;10.48;;;3.03;;
67130;SDS011;54051;53.464;49.532;2022-12-11T13:34:52;7.78;;;2.75;;
67130;SDS011;54051;53.464;49.532;2022-12-11T13:39:47;8.90;;;2.75;;
67130;SDS011;54051;53.464;49.532;2022-12-11T13:44:56;11.98;;;3.22;;
67130;SDS011;54051;53.464;49.532;2022-12-11T13:47:23;9.60;;;2.43;;
67130;SDS011;54051;53.464;49.532;2022-12-11T13:49:53;9.15;;;2.45;;
67130;SDS011;54051;53.464;49.532;2022-12-11T13:52:25;6.25;;;2.20;;
67130;SDS011;54051;53.464;49.532;2022-12-11T13:54:52;7.53;;;2.50;;
67130;SDS011;54051;53.464;49.532;2022-12-11T13:57:21;8.13;;;2.83;;
67130;SDS011;54051;53.464;49.532;2022-12-11T13:59:54;6.03;;;2.15;;
67130;SDS011;54051;53.464;49.532;2022-12-11T14:02:25;6.85;;;2.35;;
67130;SDS011;54051;53.464;49.532;2022-12-11T14:04:58;6.30;;;2.03;;
67130;SDS011;54051;53.464;49.532;2022-12-11T14:07:47;7.78;;;2.47;;
67130;SDS011;54051;53.464;49.532;2022-12-11T14:10:18;4.85;;;1.90;;
67130;SDS011;54051;53.464;49.532;2022-12-11T14:12:49;6.65;;;2.80;;
67130;SDS011;54051;53.464;49.532;2022-12-11T14:15:22;5.55;;;2.10;;
67130;SDS011;54051;53.464;49.532;2022-12-11T14:17:48;6.93;;;2.22;;
67130;SDS011;54051;53.464;49.532;2022-12-11T14:22:44;6.00;;;1.83;;
67130;SDS011;54051;53.464;49.532;2022-12-11T14:25:21;8.48;;;2.40;;
67130;SDS011;54051;53.464;49.532;2022-12-11T14:27:51;8.38;;;2.25;;
67130;SDS011;54051;53.464;49.532;2022-12-11T14:30:20;6.90;;;2.28;;
67130;SDS011;54051;53.464;49.532;2022-12-11T14:32:47;5.30;;;1.92;;
67130;SDS011;54051;53.464;49.532;2022-12-11T14:35:26;5.63;;;1.70;;
67130;SDS011;54051;53.464;49.532;2022-12-11T14:37:55;5.70;;;1.98;;
67130;SDS011;54051;53.464;49.532;2022-12-11T14:40:27;6.72;;;2.00;;
67130;SDS011;54051;53.464;49.532;2022-12-11T14:42:58;7.50;;;2.38;;
67130;SDS011;54051;53.464;49.532;2022-12-11T14:48:00;8.20;;;2.35;;
67130;SDS011;54051;53.464;49.532;2022-12-11T14:53:18;5.90;;;2.25;;
67130;SDS011;54051;53.464;49.532;2022-12-11T14:55:48;7.57;;;2.05;;
67130;SDS011;54051;53.464;49.532;2022-12-11T14:58:16;6.07;;;1.50;;
67130;SDS011;54051;53.464;49.532;2022-12-11T15:00:59;5.70;;;1.58;;
67130;SDS011;54051;53.464;49.532;2022-12-11T15:03:39;6.22;;;1.80;;
67130;SDS011;54051;53.464;49.532;2022-12-11T15:06:23;6.32;;;2.03;;
67130;SDS011;54051;53.464;49.532;2022-12-11T15:08:50;5.43;;;1.52;;
67130;SDS011;54051;53.464;49.532;2022-12-11T15:11:17;7.27;;;1.80;;
67130;SDS011;54051;53.464;49.532;2022-12-11T15:16:19;5.50;;;1.75;;
67130;SDS011;54051;53.464;49.532;2022-12-11T15:18:48;8.90;;;2.00;;
67130;SDS011;54051;53.464;49.532;2022-12-11T15:21:15;6.07;;;1.73;;
67130;SDS011;54051;53.464;49.532;2022-12-11T15:23:50;6.97;;;2.65;;
67130;SDS011;54051;53.464;49.532;2022-12-11T15:26:19;4.63;;;1.48;;
67130;SDS011;54051;53.464;49.532;2022-12-11T15:29:00;6.18;;;2.08;;
67130;SDS011;54051;53.464;49.532;2022-12-11T15:31:31;5.82;;;1.85;;
67130;SDS011;54051;53.464;49.532;2022-12-11T15:33:59;5.88;;;2.03;;
67130;SDS011;54051;53.464;49.532;2022-12-11T15:38:55;8.93;;;2.20;;
67130;SDS011;54051;53.464;49.532;2022-12-11T15:41:21;6.22;;;1.90;;
67130;SDS011;54051;53.464;49.532;2022-12-11T15:43:51;7.72;;;2.05;;
67130;SDS011;54051;53.464;49.532;2022-12-11T15:46:20;5.80;;;1.85;;
67130;SDS011;54051;53.464;49.532;2022-12-11T15:48:46;4.25;;;1.55;;
67130;SDS011;54051;53.464;49.532;2022-12-11T15:51:14;5.57;;;1.77;;
67130;SDS011;54051;53.464;49.532;2022-12-11T15:53:40;5.97;;;1.38;;
67130;SDS011;54051;53.464;49.532;2022-12-11T15:56:12;5.53;;;1.38;;
67130;SDS011;54051;53.464;49.532;2022-12-11T15:58:40;11.85;;;1.90;;
67130;SDS011;54051;53.464;49.532;2022-12-11T16:01:07;5.07;;;1.60;;
67130;SDS011;54051;53.464;49.532;2022-12-11T16:03:33;4.15;;;1.38;;
67130;SDS011;54051;53.464;49.532;2022-12-11T16:05:59;6.22;;;1.90;;
67130;SDS011;54051;53.464;49.532;2022-12-11T16:08:25;5.20;;;1.67;;
67130;SDS011;54051;53.464;49.532;2022-12-11T16:10:51;4.55;;;1.35;;
67130;SDS011;54051;53.464;49.532;2022-12-11T16:13:19;4.13;;;1.40;;
67130;SDS011;54051;53.464;49.532;2022-12-11T16:15:46;4.65;;;1.50;;
67130;SDS011;54051;53.464;49.532;2022-12-11T16:20:40;4.57;;;1.60;;
67130;SDS011;54051;53.464;49.532;2022-12-11T16:23:08;5.45;;;2.10;;
67130;SDS011;54051;53.464;49.532;2022-12-11T16:25:37;15.33;;;1.90;;
67130;SDS011;54051;53.464;49.532;2022-12-11T16:28:05;7.10;;;1.80;;
67130;SDS011;54051;53.464;49.532;2022-12-11T16:30:32;6.70;;;1.35;;
67130;SDS011;54051;53.464;49.532;2022-12-11T16:33:00;3.75;;;1.38;;
67130;SDS011;54051;53.464;49.532;2022-12-11T16:35:27;6.70;;;1.48;;
67130;SDS011;54051;53.464;49.532;2022-12-11T16:37:54;5.07;;;1.53;;
67130;SDS011;54051;53.464;49.532;2022-12-11T16:40:21;4.68;;;1.85;;